Friday, April 20, 2018, 4:15 PM EDT
Back to Local

KSWF, Newburgh / Stewart

Location: New Windsor, NY, United States Lat: 41.5
Local Time: 4:15 PM EDT (20:15 GMT) Lon: -74.1
Time Zone: US/Eastern Elev: 492 ft

Show me the last for .
Show Coded

Time T Td Feel RH Dir Speed Gust Alt SLP Vis Weather Sky Remarks
2018-04-20 15:45 46 27 38 45 320° 14 23 30.20 - 20 SCT050 None
2018-04-20 14:45 46 27 38 45 310° 17 25 30.20 - 20 SCT050 None
2018-04-20 12:45 45 27 35 48 310° 17 25 30.17 - 20 SCT050 None
2018-04-20 11:45 43 27 33 52 310° 17 25 30.17 - 20 SCT050 None
2018-04-20 10:45 41 25 34 52 300° 12 - 30.17 - 20 SCT050 None
2018-04-20 09:45 41 25 33 52 300° 14 - 30.16 - 20 SCT050 None
2018-04-20 08:45 39 23 28 51 330° 16 24 30.14 - 20 SCT050 None
2018-04-20 07:45 34 23 22 64 340° 14 23 30.12 - 20 SCT050 None
2018-04-20 06:45 34 23 25 64 300° 12 - 30.10 - 20 SCT050 None
2018-04-20 05:45 34 23 25 64 290° 12 - 30.07 - 10 BKN040 None
2018-04-20 04:45 34 23 26 64 280° 9 - 30.04 - 10 BKN040 None
2018-04-20 03:45 34 25 26 69 280° 9 - 30.01 - 10 CLR None
2018-04-20 02:45 34 25 26 69 280° 9 - 30.01 - 10 CLR None
2018-04-20 01:45 34 25 26 69 280° 9 - 30.00 - 10 CLR None
2018-04-20 00:45 34 25 26 69 280° 9 - 30.00 - 10 FEW060 BKN080 None
2018-04-19 23:45 36 25 27 64 310° 14 - 29.99 - 10 FEW060 BKN080 None
2018-04-19 22:45 36 27 28 69 290° 12 - 29.98 - 10 SCT050 SCT080 None
2018-04-19 21:45 37 28 30 69 310° 12 - 29.96 - 10 FEW040 FEW060 None
2018-04-19 20:45 37 27 27 64 300° 12 21 29.94 - 10 FEW040 SCT075 None
2018-04-19 19:45 39 25 28 55 330° 17 29 29.91 - 10 FEW040 SCT090 None
2018-04-19 18:45 39 27 28 60 320° 17 29 29.88 - 15 FEW040 BKN060 None
2018-04-19 17:45 43 28 32 56 320° 23 31 29.82 - 15 FEW040 BKN050 None
2018-04-19 16:45 43 32 35 65 310° 17 - 29.79 - 10 BKN030 BKN040 None

Support USWX by starting your Amazon purchase here.